createdAt,value
2019-03-30T00:00:09.430Z,48.17
2019-03-30T00:02:39.674Z,41.10
2019-03-30T00:05:07.830Z,41.50
2019-03-30T00:07:35.923Z,28.63
2019-03-30T00:10:04.298Z,39.77
2019-03-30T00:12:32.437Z,26.07
2019-03-30T00:15:00.693Z,22.63
2019-03-30T00:17:28.822Z,26.00
2019-03-30T00:19:57.048Z,21.77
2019-03-30T00:22:25.108Z,30.30
2019-03-30T00:24:53.234Z,27.10
2019-03-30T00:27:21.550Z,24.53
2019-03-30T00:29:49.660Z,21.57
2019-03-30T00:32:19.575Z,22.50
2019-03-30T00:34:48.934Z,22.10
2019-03-30T00:37:17.097Z,25.70
2019-03-30T00:39:45.233Z,20.87
2019-03-30T00:42:13.308Z,23.93
2019-03-30T00:44:41.662Z,19.43
2019-03-30T00:47:10.997Z,19.60
2019-03-30T00:49:48.833Z,19.73
2019-03-30T00:52:09.121Z,28.40
2019-03-30T00:54:37.310Z,21.83
2019-03-30T00:57:08.113Z,21.63
2019-03-30T00:59:36.252Z,21.70
2019-03-30T01:02:12.093Z,31.60
2019-03-30T01:04:40.559Z,20.10
2019-03-30T01:07:08.832Z,16.73
2019-03-30T01:09:36.889Z,20.93
2019-03-30T01:12:05.077Z,20.57
2019-03-30T01:14:33.095Z,21.33
2019-03-30T01:17:01.411Z,21.83
2019-03-30T01:19:29.962Z,24.33
2019-03-30T01:21:58.084Z,18.77
2019-03-30T01:24:26.155Z,28.07
2019-03-30T01:26:54.233Z,16.27
2019-03-30T01:29:22.573Z,21.37
2019-03-30T01:31:51.950Z,18.30
2019-03-30T01:34:20.108Z,18.63
2019-03-30T01:36:48.222Z,15.77
2019-03-30T01:39:16.322Z,19.23
2019-03-30T01:41:44.398Z,19.97
2019-03-30T01:44:12.460Z,30.03
2019-03-30T01:46:42.076Z,20.63
2019-03-30T01:49:10.200Z,21.50
2019-03-30T01:51:38.384Z,21.23
2019-03-30T01:54:06.482Z,34.30
2019-03-30T01:56:34.500Z,33.13
2019-03-30T01:59:02.581Z,30.37
2019-03-30T02:01:31.978Z,33.77
2019-03-30T02:04:00.119Z,28.50
2019-03-30T02:06:28.218Z,30.47
2019-03-30T02:08:56.384Z,24.67
2019-03-30T02:11:24.889Z,28.33
2019-03-30T02:13:53.282Z,28.63
2019-03-30T02:16:21.401Z,31.40
2019-03-30T02:18:50.742Z,26.10
2019-03-30T02:21:19.900Z,25.70
2019-03-30T02:23:48.145Z,25.03
2019-03-30T02:26:16.443Z,29.00
2019-03-30T02:28:44.764Z,23.50
2019-03-30T02:31:13.068Z,28.80
2019-03-30T02:33:41.520Z,26.53
2019-03-30T02:36:09.755Z,21.80
2019-03-30T02:38:37.918Z,20.77
2019-03-30T02:41:06.202Z,23.53
2019-03-30T02:43:34.323Z,21.33
2019-03-30T02:46:02.367Z,34.87
2019-03-30T02:48:30.424Z,24.00
2019-03-30T02:50:58.694Z,27.73
2019-03-30T02:53:27.283Z,21.40
2019-03-30T02:55:55.586Z,20.47
2019-03-30T02:58:23.829Z,27.07
2019-03-30T03:00:51.977Z,23.27
2019-03-30T03:03:22.741Z,21.60
2019-03-30T03:05:50.829Z,22.07
2019-03-30T03:08:19.004Z,22.00
2019-03-30T03:10:47.066Z,23.10
2019-03-30T03:13:15.196Z,21.43
2019-03-30T03:15:43.369Z,19.20
2019-03-30T03:18:11.433Z,28.43
2019-03-30T03:20:39.467Z,21.13
2019-03-30T03:23:07.518Z,23.80
2019-03-30T03:25:35.578Z,23.30
2019-03-30T03:28:03.591Z,25.20
2019-03-30T03:30:35.493Z,25.53
2019-03-30T03:33:03.649Z,19.03
2019-03-30T03:35:31.913Z,22.10
2019-03-30T03:37:59.973Z,27.80
2019-03-30T03:40:28.265Z,23.83
2019-03-30T03:42:56.285Z,23.60
2019-03-30T03:45:24.443Z,25.93
2019-03-30T03:47:52.459Z,19.50
2019-03-30T03:50:52.584Z,19.20
2019-03-30T03:53:20.822Z,17.20
2019-03-30T03:55:49.531Z,20.07
2019-03-30T03:58:17.563Z,18.00
2019-03-30T04:00:45.772Z,23.53
2019-03-30T04:03:17.448Z,27.33
2019-03-30T04:05:46.898Z,26.77
2019-03-30T04:08:16.059Z,22.60
2019-03-30T04:10:48.525Z,19.40
2019-03-30T04:13:16.773Z,28.33
2019-03-30T04:15:44.765Z,22.40
2019-03-30T04:18:12.875Z,24.50
2019-03-30T04:20:41.060Z,24.63
2019-03-30T04:23:09.086Z,25.23
2019-03-30T04:25:37.149Z,38.27
2019-03-30T04:28:05.215Z,18.97
2019-03-30T04:30:33.347Z,22.17
2019-03-30T04:33:01.415Z,27.40
2019-03-30T04:35:29.664Z,23.73
2019-03-30T04:37:57.828Z,21.70
2019-03-30T04:40:25.852Z,19.13
2019-03-30T04:42:53.900Z,20.53
2019-03-30T04:45:22.081Z,20.97
2019-03-30T04:47:50.201Z,21.70
2019-03-30T04:50:18.243Z,19.27
2019-03-30T04:52:46.288Z,19.27
2019-03-30T04:55:14.299Z,22.43
2019-03-30T04:57:43.437Z,23.50
2019-03-30T05:00:11.617Z,22.30
2019-03-30T05:02:39.714Z,17.07
2019-03-30T05:05:08.633Z,22.27
2019-03-30T05:07:36.940Z,17.70
2019-03-30T05:10:05.823Z,23.67
2019-03-30T05:12:33.931Z,19.97
2019-03-30T05:15:03.293Z,23.60
2019-03-30T05:17:46.363Z,20.20
2019-03-30T05:20:01.724Z,20.40
2019-03-30T05:22:30.316Z,21.83
2019-03-30T05:24:58.467Z,20.73
2019-03-30T05:27:26.538Z,21.80
2019-03-30T05:29:55.552Z,22.60
2019-03-30T05:32:23.786Z,19.40
2019-03-30T05:34:52.270Z,18.77
2019-03-30T05:37:20.374Z,17.57
2019-03-30T05:39:49.029Z,20.27
2019-03-30T05:42:17.399Z,19.50
2019-03-30T05:44:45.645Z,25.20
2019-03-30T05:47:13.789Z,18.37
2019-03-30T05:49:41.930Z,18.27
2019-03-30T05:52:10.039Z,17.50
2019-03-30T05:54:38.441Z,18.30
2019-03-30T05:57:06.541Z,22.47
2019-03-30T05:59:34.683Z,19.57
2019-03-30T06:02:02.801Z,19.30
2019-03-30T06:04:31.432Z,20.77
2019-03-30T06:06:59.766Z,24.70
2019-03-30T06:09:27.986Z,21.57
2019-03-30T06:11:57.083Z,20.27
2019-03-30T06:14:25.246Z,27.73
2019-03-30T06:16:53.378Z,21.10
2019-03-30T06:19:24.389Z,20.47
2019-03-30T06:21:52.614Z,17.13
2019-03-30T06:24:20.654Z,21.60
2019-03-30T06:26:48.818Z,19.77
2019-03-30T06:29:16.836Z,16.53
2019-03-30T06:31:46.868Z,21.57
2019-03-30T06:34:15.140Z,28.07
2019-03-30T06:36:43.306Z,18.87
2019-03-30T06:39:11.286Z,20.60
2019-03-30T06:41:39.829Z,24.43
2019-03-30T06:44:08.524Z,21.27
2019-03-30T06:46:39.363Z,19.67
2019-03-30T06:49:06.955Z,19.93
2019-03-30T06:51:35.141Z,16.97
2019-03-30T06:54:03.120Z,18.97
2019-03-30T06:56:31.140Z,25.87
2019-03-30T06:58:59.143Z,19.87
2019-03-30T07:01:28.396Z,19.83
2019-03-30T07:03:56.346Z,18.00
2019-03-30T07:06:26.286Z,23.77
2019-03-30T07:08:56.241Z,23.27
2019-03-30T07:11:27.273Z,18.30
2019-03-30T07:13:59.140Z,25.10
2019-03-30T07:16:30.333Z,22.23
2019-03-30T07:19:02.061Z,22.20
2019-03-30T07:21:30.180Z,19.00
2019-03-30T07:23:58.300Z,23.30
2019-03-30T07:26:26.330Z,19.00
2019-03-30T07:28:54.337Z,21.10
2019-03-30T07:31:22.434Z,21.13
2019-03-30T07:33:50.470Z,22.83
2019-03-30T07:36:18.465Z,20.50
2019-03-30T07:38:46.527Z,20.70
2019-03-30T07:41:14.577Z,19.83
2019-03-30T07:43:42.782Z,22.67
2019-03-30T07:46:10.879Z,24.57
2019-03-30T07:48:39.213Z,20.87
2019-03-30T07:51:07.193Z,19.67
2019-03-30T07:53:44.480Z,18.50
2019-03-30T07:56:08.584Z,19.00
2019-03-30T07:58:35.196Z,20.60
2019-03-30T08:01:03.761Z,19.47
2019-03-30T08:03:31.839Z,18.63
2019-03-30T08:06:00.296Z,19.97
2019-03-30T08:08:28.310Z,21.20
2019-03-30T08:10:56.497Z,16.00
2019-03-30T08:13:24.455Z,19.97
2019-03-30T08:15:52.607Z,19.73
2019-03-30T08:18:20.582Z,17.10
2019-03-30T08:20:48.722Z,16.17
2019-03-30T08:23:16.825Z,19.40
2019-03-30T08:25:44.814Z,16.30
2019-03-30T08:28:12.972Z,18.87
2019-03-30T08:30:41.197Z,17.73
2019-03-30T08:33:09.282Z,21.47
2019-03-30T08:35:37.333Z,18.40
2019-03-30T08:38:05.417Z,17.67
2019-03-30T08:40:33.449Z,20.17
2019-03-30T08:43:01.445Z,17.80
2019-03-30T08:45:29.465Z,19.10
2019-03-30T08:47:57.513Z,19.03
2019-03-30T08:50:25.500Z,17.50
2019-03-30T08:52:53.839Z,20.83
2019-03-30T08:55:21.979Z,20.53
2019-03-30T08:57:50.041Z,21.30
2019-03-30T09:00:40.523Z,25.37
2019-03-30T09:03:08.690Z,16.10
2019-03-30T09:05:36.728Z,15.33
2019-03-30T09:08:04.894Z,20.30
2019-03-30T09:10:33.296Z,15.50
2019-03-30T09:13:01.414Z,17.27
2019-03-30T09:15:29.497Z,17.17
2019-03-30T09:17:57.810Z,15.30
2019-03-30T09:20:26.137Z,19.93
2019-03-30T09:22:54.161Z,17.80
2019-03-30T09:25:22.152Z,16.00
2019-03-30T09:27:50.537Z,15.90
2019-03-30T09:30:18.542Z,16.47
2019-03-30T09:32:46.566Z,18.80
2019-03-30T09:35:14.650Z,14.30
2019-03-30T09:37:42.767Z,13.20
2019-03-30T09:40:10.837Z,18.77
2019-03-30T09:42:38.989Z,17.37
2019-03-30T09:45:07.165Z,17.13
2019-03-30T09:47:35.181Z,17.23
2019-03-30T09:50:03.278Z,13.97
2019-03-30T09:52:31.583Z,18.37
2019-03-30T09:54:59.655Z,14.80
2019-03-30T09:57:27.777Z,29.50
2019-03-30T09:59:56.040Z,13.00
2019-03-30T10:02:43.796Z,16.83
2019-03-30T10:05:23.077Z,19.87
2019-03-30T10:07:53.209Z,14.93
2019-03-30T10:10:21.236Z,15.07
2019-03-30T10:12:49.327Z,16.57
2019-03-30T10:15:17.442Z,13.87
2019-03-30T10:17:45.593Z,18.10
2019-03-30T10:20:13.810Z,13.37
2019-03-30T10:22:42.250Z,14.73
2019-03-30T10:25:10.517Z,12.40
2019-03-30T10:27:38.561Z,13.93
2019-03-30T10:30:07.174Z,22.97
2019-03-30T10:32:35.258Z,15.40
2019-03-30T10:35:03.476Z,14.53
2019-03-30T10:37:31.589Z,13.63
2019-03-30T10:39:59.639Z,17.03
2019-03-30T10:42:27.631Z,16.17
2019-03-30T10:44:55.706Z,17.93
2019-03-30T10:47:23.754Z,17.17
2019-03-30T10:49:51.776Z,19.67
2019-03-30T10:52:19.744Z,14.90
2019-03-30T10:54:53.040Z,19.37
2019-03-30T10:57:17.662Z,13.53
2019-03-30T10:59:45.769Z,15.07
2019-03-30T11:02:13.822Z,17.67
2019-03-30T11:04:41.937Z,14.17
2019-03-30T11:07:10.077Z,15.67
2019-03-30T11:09:38.182Z,16.07
2019-03-30T11:12:06.232Z,18.83
2019-03-30T11:14:34.271Z,15.63
2019-03-30T11:17:02.250Z,17.07
2019-03-30T11:19:30.565Z,15.10
2019-03-30T11:21:58.856Z,17.20
2019-03-30T11:24:26.953Z,16.83
2019-03-30T11:26:54.970Z,14.60
2019-03-30T11:29:22.975Z,15.17
2019-03-30T11:31:51.133Z,16.33
2019-03-30T11:34:19.134Z,17.80
2019-03-30T11:36:47.156Z,14.10
2019-03-30T11:39:15.155Z,12.27
2019-03-30T11:41:43.189Z,10.47
2019-03-30T11:44:11.233Z,11.00
2019-03-30T11:46:39.235Z,13.03
2019-03-30T11:49:07.297Z,15.68
2019-03-30T11:51:35.403Z,15.57
2019-03-30T11:54:05.339Z,13.57
2019-03-30T11:56:33.366Z,15.23
2019-03-30T11:59:01.353Z,15.60
2019-03-30T12:01:29.402Z,14.40
2019-03-30T12:03:57.469Z,16.00
2019-03-30T12:06:25.675Z,16.70
2019-03-30T12:08:53.828Z,12.17
2019-03-30T12:11:21.979Z,15.27
2019-03-30T12:13:50.065Z,13.40
2019-03-30T12:16:18.321Z,10.83
2019-03-30T12:18:46.279Z,15.30
2019-03-30T12:21:15.352Z,16.50
2019-03-30T12:23:43.373Z,15.63
2019-03-30T12:26:12.484Z,11.93
2019-03-30T12:28:40.458Z,13.77
2019-03-30T12:31:08.429Z,10.80
2019-03-30T12:33:36.473Z,12.20
2019-03-30T12:36:04.588Z,10.07
2019-03-30T12:38:32.645Z,8.30
2019-03-30T12:41:00.657Z,10.80
2019-03-30T12:43:28.790Z,10.90
2019-03-30T12:45:56.951Z,9.40
2019-03-30T12:48:24.930Z,12.13
2019-03-30T12:50:53.012Z,12.53
2019-03-30T12:53:21.053Z,11.33
2019-03-30T12:55:49.776Z,11.07
2019-03-30T12:58:19.127Z,9.33
2019-03-30T13:00:47.310Z,11.77
2019-03-30T13:03:15.401Z,8.80
2019-03-30T13:05:44.585Z,10.20
2019-03-30T13:08:12.625Z,13.60
2019-03-30T13:10:40.924Z,17.73
2019-03-30T13:13:08.953Z,10.30
2019-03-30T13:15:36.951Z,15.40
2019-03-30T13:18:05.301Z,13.63
2019-03-30T13:20:33.328Z,10.83
2019-03-30T13:23:01.308Z,13.00
2019-03-30T13:25:29.301Z,10.63
2019-03-30T13:27:57.382Z,13.20
2019-03-30T13:30:25.466Z,13.40
2019-03-30T13:32:53.695Z,13.60
2019-03-30T13:35:21.770Z,12.57
2019-03-30T13:37:49.763Z,12.03
2019-03-30T13:40:17.973Z,12.37
2019-03-30T13:42:46.040Z,15.90
2019-03-30T13:45:14.133Z,11.20
2019-03-30T13:47:42.118Z,10.00
2019-03-30T13:50:10.196Z,11.07
2019-03-30T13:52:38.266Z,16.30
2019-03-30T13:55:06.271Z,20.30
2019-03-30T13:57:34.243Z,12.90
2019-03-30T14:00:02.418Z,17.63
2019-03-30T14:02:31.742Z,14.87
2019-03-30T14:04:59.895Z,12.53
2019-03-30T14:07:27.875Z,11.97
2019-03-30T14:09:55.955Z,9.27
2019-03-30T14:12:24.064Z,11.83
2019-03-30T14:14:52.046Z,9.53
2019-03-30T14:17:20.383Z,9.23
2019-03-30T14:19:48.427Z,11.90
2019-03-30T14:22:16.461Z,8.57
2019-03-30T14:24:44.447Z,13.57
2019-03-30T14:27:12.515Z,9.20
2019-03-30T14:29:40.486Z,10.13
2019-03-30T14:32:08.835Z,10.37
2019-03-30T14:34:36.839Z,10.67
2019-03-30T14:37:04.854Z,11.57
2019-03-30T14:39:32.882Z,9.30
2019-03-30T14:42:01.042Z,11.23
2019-03-30T14:44:29.054Z,10.80
2019-03-30T14:46:57.419Z,13.87
2019-03-30T14:49:25.511Z,10.67
2019-03-30T14:51:53.639Z,12.17
2019-03-30T14:54:21.610Z,13.53
2019-03-30T14:56:49.629Z,13.80
2019-03-30T14:59:17.720Z,11.33
2019-03-30T15:01:45.750Z,13.40
2019-03-30T15:04:13.900Z,11.90
2019-03-30T15:06:41.880Z,12.13
2019-03-30T15:09:10.033Z,14.83
2019-03-30T15:11:38.195Z,14.70
2019-03-30T15:14:06.310Z,14.53
2019-03-30T15:16:44.529Z,14.83
2019-03-30T15:19:12.532Z,14.33
2019-03-30T15:21:40.740Z,13.80
2019-03-30T15:24:08.897Z,18.20
2019-03-30T15:26:36.912Z,14.87
2019-03-30T15:29:05.094Z,20.70
2019-03-30T15:31:33.241Z,12.80
2019-03-30T15:34:01.197Z,16.83
2019-03-30T15:36:29.390Z,16.50
2019-03-30T15:38:57.414Z,15.53
2019-03-30T15:41:25.401Z,12.43
2019-03-30T15:43:54.558Z,19.47
2019-03-30T15:46:22.569Z,19.63
2019-03-30T15:48:50.648Z,15.23
2019-03-30T15:51:18.594Z,18.20
2019-03-30T15:53:46.574Z,14.90
2019-03-30T15:56:14.594Z,17.90
2019-03-30T15:58:42.680Z,15.80
2019-03-30T16:01:10.655Z,14.23
2019-03-30T16:03:38.690Z,14.93
2019-03-30T16:06:06.807Z,17.30
2019-03-30T16:08:34.879Z,14.17
2019-03-30T16:11:03.011Z,24.53
2019-03-30T16:13:31.116Z,24.57
2019-03-30T16:15:59.118Z,26.10
2019-03-30T16:18:27.141Z,17.97
2019-03-30T16:20:55.130Z,18.30
2019-03-30T16:23:23.954Z,18.07
2019-03-30T16:25:52.032Z,22.30
2019-03-30T16:28:20.008Z,14.43
2019-03-30T16:30:48.018Z,17.00
2019-03-30T16:33:16.057Z,14.07
2019-03-30T16:35:44.212Z,13.33
2019-03-30T16:38:12.197Z,17.00
2019-03-30T16:40:40.467Z,17.50
2019-03-30T16:43:08.706Z,16.20
2019-03-30T16:45:36.838Z,16.53
2019-03-30T16:48:04.946Z,20.63
2019-03-30T16:50:33.053Z,17.37
2019-03-30T16:53:01.057Z,20.88
2019-03-30T16:55:29.078Z,22.27
2019-03-30T16:57:57.080Z,27.20
2019-03-30T17:00:27.116Z,22.57
2019-03-30T17:02:55.453Z,18.23
2019-03-30T17:05:23.512Z,18.13
2019-03-30T17:07:51.538Z,18.57
2019-03-30T17:10:19.531Z,16.13
2019-03-30T17:12:50.073Z,17.10
2019-03-30T17:15:18.106Z,23.47
2019-03-30T17:17:46.133Z,25.80
2019-03-30T17:20:14.133Z,25.47
2019-03-30T17:22:42.374Z,23.17
2019-03-30T17:25:10.504Z,21.93
2019-03-30T17:27:38.577Z,22.00
2019-03-30T17:30:07.657Z,26.80
2019-03-30T17:32:36.087Z,25.17
2019-03-30T17:35:04.493Z,30.70
2019-03-30T17:37:32.513Z,25.97
2019-03-30T17:40:00.598Z,28.83
2019-03-30T17:42:28.656Z,30.80
2019-03-30T17:44:56.738Z,25.00
2019-03-30T17:47:24.763Z,29.53
2019-03-30T17:49:52.729Z,33.23
2019-03-30T17:52:20.751Z,24.67
2019-03-30T17:54:48.803Z,28.90
2019-03-30T17:57:17.652Z,36.80
2019-03-30T17:59:45.856Z,26.40
2019-03-30T18:02:13.851Z,27.63
2019-03-30T18:04:41.874Z,40.03
2019-03-30T18:07:13.434Z,36.70
2019-03-30T18:09:39.884Z,25.70
2019-03-30T18:12:07.874Z,34.10
2019-03-30T18:14:36.961Z,28.20
2019-03-30T18:17:04.952Z,28.67
2019-03-30T18:19:33.031Z,32.43
2019-03-30T18:22:01.008Z,26.80
2019-03-30T18:24:29.022Z,23.17
2019-03-30T18:26:57.032Z,21.50
2019-03-30T18:29:25.030Z,24.93
2019-03-30T18:31:53.039Z,21.30
2019-03-30T18:34:21.250Z,19.47
2019-03-30T18:36:51.045Z,16.23
2019-03-30T18:39:19.685Z,28.03
2019-03-30T18:41:47.783Z,26.30
2019-03-30T18:44:28.184Z,18.30
2019-03-30T18:46:56.207Z,16.67
2019-03-30T18:49:24.344Z,16.03
2019-03-30T18:51:52.857Z,24.53
2019-03-30T18:54:22.654Z,18.87
2019-03-30T18:56:50.675Z,18.93
2019-03-30T18:59:18.731Z,17.87
2019-03-30T19:01:47.046Z,22.03
2019-03-30T19:04:15.429Z,24.47
2019-03-30T19:06:44.937Z,24.10
2019-03-30T19:09:12.989Z,38.40
2019-03-30T19:11:41.082Z,27.77
2019-03-30T19:14:09.066Z,25.77
2019-03-30T19:16:37.090Z,20.10
2019-03-30T19:19:05.081Z,29.00
2019-03-30T19:21:33.170Z,26.10
2019-03-30T19:24:01.231Z,23.43
2019-03-30T19:26:29.302Z,23.30
2019-03-30T19:28:57.382Z,22.90
2019-03-30T19:31:25.408Z,27.53
2019-03-30T19:33:53.474Z,31.83
2019-03-30T19:36:21.599Z,23.33
2019-03-30T19:38:49.575Z,24.37
2019-03-30T19:41:17.629Z,24.30
2019-03-30T19:43:46.713Z,20.47
2019-03-30T19:46:14.797Z,18.50
2019-03-30T19:48:42.785Z,25.50
2019-03-30T19:51:10.790Z,25.13
2019-03-30T19:53:38.765Z,28.33
2019-03-30T19:56:06.817Z,27.70
2019-03-30T19:58:35.005Z,18.57
2019-03-30T20:01:03.081Z,30.03
2019-03-30T20:03:31.199Z,20.67
2019-03-30T20:05:59.182Z,22.83
2019-03-30T20:08:27.344Z,31.33
2019-03-30T20:10:55.512Z,30.80
2019-03-30T20:13:23.564Z,26.83
2019-03-30T20:15:51.538Z,24.90
2019-03-30T20:18:20.654Z,27.07
2019-03-30T20:20:48.673Z,33.63
2019-03-30T20:23:16.664Z,25.43
2019-03-30T20:25:44.669Z,27.90
2019-03-30T20:28:12.828Z,23.10
2019-03-30T20:30:40.812Z,23.03
2019-03-30T20:33:08.981Z,20.03
2019-03-30T20:35:37.063Z,26.63
2019-03-30T20:38:05.200Z,23.33
2019-03-30T20:40:33.161Z,24.80
2019-03-30T20:43:01.247Z,19.30
2019-03-30T20:45:29.234Z,24.27
2019-03-30T20:47:57.331Z,27.33
2019-03-30T20:50:25.414Z,38.20
2019-03-30T20:52:53.418Z,24.90
2019-03-30T20:55:21.533Z,20.30
2019-03-30T20:57:49.523Z,23.07
2019-03-30T21:00:18.074Z,19.90
2019-03-30T21:02:46.205Z,33.53
2019-03-30T21:05:14.306Z,29.03
2019-03-30T21:07:42.352Z,25.60
2019-03-30T21:10:10.739Z,29.67
2019-03-30T21:12:38.712Z,37.30
2019-03-30T21:15:07.204Z,28.20
2019-03-30T21:17:35.213Z,21.30
2019-03-30T21:20:03.829Z,23.40
2019-03-30T21:22:31.764Z,21.70
2019-03-30T21:24:59.803Z,29.50
2019-03-30T21:27:27.854Z,37.80
2019-03-30T21:29:55.982Z,38.43
2019-03-30T21:32:24.065Z,35.43
2019-03-30T21:34:52.127Z,38.53
2019-03-30T21:37:20.118Z,30.77
2019-03-30T21:39:48.110Z,33.60
2019-03-30T21:42:16.088Z,27.43
2019-03-30T21:44:44.088Z,30.83
2019-03-30T21:47:12.129Z,29.33
2019-03-30T21:49:40.193Z,25.07
2019-03-30T21:52:08.171Z,29.30
2019-03-30T21:54:36.126Z,27.70
2019-03-30T21:57:04.241Z,30.23
2019-03-30T21:59:32.391Z,25.63
2019-03-30T22:02:00.473Z,30.53
2019-03-30T22:04:28.577Z,28.47
2019-03-30T22:06:57.664Z,27.63
2019-03-30T22:09:26.009Z,24.73
2019-03-30T22:11:54.026Z,28.33
2019-03-30T22:14:22.039Z,23.00
2019-03-30T22:16:50.060Z,24.23
2019-03-30T22:19:18.073Z,28.13
2019-03-30T22:21:46.057Z,25.20
2019-03-30T22:24:14.054Z,28.90
2019-03-30T22:26:42.036Z,23.70
2019-03-30T22:29:11.005Z,25.17
2019-03-30T22:31:39.019Z,23.20
2019-03-30T22:34:06.991Z,27.03
2019-03-30T22:36:35.064Z,29.30
2019-03-30T22:39:04.933Z,24.40
2019-03-30T22:41:33.521Z,28.17
2019-03-30T22:44:01.479Z,27.37
2019-03-30T22:46:29.530Z,25.60
2019-03-30T22:48:57.515Z,26.70
2019-03-30T22:51:25.506Z,25.43
2019-03-30T22:53:53.488Z,29.97
2019-03-30T22:56:21.436Z,32.90
2019-03-30T22:58:49.513Z,32.57
2019-03-30T23:01:18.714Z,33.47
2019-03-30T23:03:48.773Z,25.30
2019-03-30T23:06:20.597Z,26.83
2019-03-30T23:08:49.699Z,28.73
2019-03-30T23:11:17.655Z,25.50
2019-03-30T23:13:45.619Z,26.37
2019-03-30T23:16:13.606Z,21.43
2019-03-30T23:18:44.991Z,24.43
2019-03-30T23:21:11.559Z,24.17
2019-03-30T23:23:39.570Z,24.60
2019-03-30T23:26:07.517Z,20.60
2019-03-30T23:28:35.472Z,24.03
2019-03-30T23:31:03.562Z,25.33
2019-03-30T23:33:31.685Z,24.50
2019-03-30T23:35:59.780Z,25.30
2019-03-30T23:38:27.874Z,23.70
2019-03-30T23:40:55.873Z,24.20
2019-03-30T23:43:23.858Z,34.77
2019-03-30T23:45:51.828Z,24.30
2019-03-30T23:48:19.826Z,21.97
2019-03-30T23:50:47.817Z,22.73
2019-03-30T23:53:15.782Z,22.27
2019-03-30T23:55:43.771Z,24.33
2019-03-30T23:58:11.766Z,20.63
